Time;durP1;ratioP1;P1;durP2;ratioP2;P2;SDS_P1;SDS_P2;PMS_P1;PMS_P2;Temp;Humidity;BMP_temperature;BMP_pressure;BME280_temperature;BME280_humidity;BME280_pressure;Samples;Min_cycle;Max_cycle;Signal;HPM_P1;HPM_P2
2021/12/05 00:16:53;;;;;;;25.10;18.30;;;4.20;99.90;;;;;;635638;225;26583;-82
2021/12/05 00:19:02;;;;;;;24.10;17.93;;;3.90;99.90;;;;;;637402;226;26548;-83
2021/12/05 00:23:47;;;;;;;24.23;18.70;;;4.00;99.90;;;;;;637417;226;26582;-82
2021/12/05 00:26:16;;;;;;;24.83;19.37;;;3.90;99.90;;;;;;637090;226;26569;-82
2021/12/05 00:28:58;;;;;;;24.67;19.83;;;4.10;99.90;;;;;;636852;226;26592;-83
2021/12/05 00:31:20;;;;;;;25.67;18.73;;;4.00;99.90;;;;;;635666;226;26555;-82
2021/12/05 00:33:55;;;;;;;23.50;17.90;;;4.00;99.90;;;;;;636229;226;26567;-82
2021/12/05 00:36:56;;;;;;;23.90;19.10;;;4.10;99.90;;;;;;635727;226;26558;-82
2021/12/05 00:39:22;;;;;;;24.67;18.80;;;4.20;99.90;;;;;;636186;223;26831;-82
2021/12/05 00:41:39;;;;;;;24.37;18.97;;;4.30;99.90;;;;;;636872;225;27407;-82
2021/12/05 00:46:44;;;;;;;25.13;18.07;;;4.20;99.90;;;;;;629164;225;26575;-82
2021/12/05 00:49:18;;;;;;;24.10;18.17;;;4.20;99.90;;;;;;636628;225;26536;-82
2021/12/05 00:52:03;;;;;;;24.33;18.50;;;4.10;99.90;;;;;;636466;224;26520;-82
2021/12/05 00:57:06;;;;;;;24.87;18.13;;;4.20;99.90;;;;;;637919;225;26500;-82
2021/12/05 01:02:15;;;;;;;23.60;18.40;;;4.20;99.90;;;;;;637723;225;26571;-82
2021/12/05 01:09:40;;;;;;;23.80;18.70;;;4.00;99.90;;;;;;637668;225;26863;-82
2021/12/05 01:12:13;;;;;;;21.07;17.27;;;3.90;99.90;;;;;;637216;225;26605;-82
2021/12/05 01:14:35;;;;;;;23.50;18.03;;;3.90;99.90;;;;;;636587;225;26786;-83
2021/12/05 01:16:58;;;;;;;20.03;16.77;;;3.90;99.90;;;;;;637029;226;26811;-82
2021/12/05 01:19:26;;;;;;;21.73;17.73;;;3.80;99.90;;;;;;637415;226;26604;-83
2021/12/05 01:21:52;;;;;;;22.80;16.40;;;4.00;99.90;;;;;;637401;226;26809;-82
2021/12/05 01:24:32;;;;;;;20.63;16.70;;;4.10;99.90;;;;;;637375;226;26553;-82
2021/12/05 01:26:56;;;;;;;20.97;17.47;;;4.10;99.90;;;;;;636358;226;26588;-82
2021/12/05 01:29:32;;;;;;;24.03;18.27;;;4.10;99.90;;;;;;636560;225;26854;-83
2021/12/05 01:32:06;;;;;;;23.83;18.17;;;4.00;99.90;;;;;;636129;223;26560;-83
2021/12/05 01:34:40;;;;;;;23.47;17.27;;;4.00;99.90;;;;;;636807;226;26579;-82
2021/12/05 01:37:10;;;;;;;25.30;18.60;;;3.80;99.90;;;;;;636440;226;26533;-82
2021/12/05 01:43:00;;;;;;;22.90;18.70;;;3.90;99.90;;;;;;618258;225;26539;-83
2021/12/05 01:45:20;;;;;;;24.27;18.93;;;4.20;99.90;;;;;;636978;226;26564;-82
2021/12/05 01:47:46;;;;;;;23.97;18.93;;;4.20;99.90;;;;;;635536;226;26564;-82
2021/12/05 01:55:34;;;;;;;23.10;17.37;;;4.10;99.90;;;;;;638504;225;26533;-83
2021/12/05 01:57:55;;;;;;;23.27;18.27;;;4.10;99.90;;;;;;636422;225;26761;-82
2021/12/05 02:00:56;;;;;;;23.73;17.67;;;4.10;99.90;;;;;;637090;225;26551;-82
2021/12/05 02:07:33;;;;;;;24.10;18.50;;;4.10;99.90;;;;;;637497;225;26512;-83
2021/12/05 02:08:27;;;;;;;24.50;18.87;;;4.30;99.90;;;;;;637833;225;26748;-82
2021/12/05 02:16:25;;;;;;;25.90;20.10;;;4.50;99.90;;;;;;637733;225;26546;-81
2021/12/05 02:31:35;;;;;;;30.80;22.40;;;4.40;99.90;;;;;;637400;226;26575;-81
2021/12/05 02:33:54;;;;;;;27.67;22.33;;;4.30;99.90;;;;;;636099;226;26554;-81
2021/12/05 02:36:29;;;;;;;27.60;22.87;;;4.30;99.90;;;;;;636992;226;26554;-81
2021/12/05 02:41:38;;;;;;;28.23;22.83;;;4.20;99.90;;;;;;618483;222;26855;-82
2021/12/05 02:44:11;;;;;;;31.50;23.10;;;4.10;99.90;;;;;;637068;223;26904;-80
2021/12/05 02:46:30;;;;;;;33.20;24.50;;;4.20;99.90;;;;;;636739;225;26542;-80
2021/12/05 02:49:03;;;;;;;29.97;23.10;;;3.90;99.90;;;;;;637471;226;26872;-81
2021/12/05 02:51:27;;;;;;;34.07;23.67;;;4.20;99.90;;;;;;637168;226;26561;-80
2021/12/05 02:54:05;;;;;;;32.83;23.77;;;4.30;99.90;;;;;;637315;226;26567;-80
2021/12/05 02:56:24;;;;;;;35.00;25.20;;;4.30;99.90;;;;;;636656;226;26580;-80
2021/12/05 02:58:52;;;;;;;32.20;23.77;;;4.40;99.90;;;;;;637395;226;26579;-80
2021/12/05 03:01:22;;;;;;;32.60;23.77;;;4.40;99.90;;;;;;637755;223;26525;-80
2021/12/05 03:03:46;;;;;;;31.53;25.03;;;4.40;99.90;;;;;;638794;225;26561;-80
2021/12/05 03:06:19;;;;;;;32.40;24.20;;;4.40;99.90;;;;;;638712;225;26795;-80
2021/12/05 03:08:45;;;;;;;32.10;24.10;;;4.40;99.90;;;;;;638245;225;26612;-80
2021/12/05 03:11:12;;;;;;;33.77;24.67;;;4.40;99.90;;;;;;638193;221;26577;-79
2021/12/05 03:13:40;;;;;;;35.23;26.60;;;4.40;99.90;;;;;;638141;225;26519;-78
2021/12/05 03:16:08;;;;;;;34.50;25.20;;;4.30;99.90;;;;;;638112;225;26504;-79
2021/12/05 03:18:35;;;;;;;33.77;25.03;;;4.10;99.90;;;;;;637862;225;26532;-78
2021/12/05 03:21:04;;;;;;;33.87;25.20;;;4.20;99.90;;;;;;637739;225;27265;-79
2021/12/05 03:23:29;;;;;;;33.13;25.40;;;4.20;99.90;;;;;;637610;225;26573;-79
2021/12/05 03:25:56;;;;;;;35.13;25.30;;;4.20;99.90;;;;;;637707;225;26861;-78
2021/12/05 03:28:24;;;;;;;36.87;25.60;;;4.30;99.90;;;;;;637693;225;26558;-78
2021/12/05 03:30:51;;;;;;;36.00;25.13;;;4.30;99.90;;;;;;637709;225;26784;-78
2021/12/05 03:33:18;;;;;;;34.17;25.87;;;4.10;99.90;;;;;;637670;225;26784;-79
2021/12/05 03:35:45;;;;;;;36.77;26.03;;;4.10;99.90;;;;;;637686;225;26783;-79
2021/12/05 03:38:12;;;;;;;36.83;26.20;;;4.20;99.90;;;;;;637455;225;26586;-79
2021/12/05 03:40:40;;;;;;;36.60;26.47;;;4.40;99.90;;;;;;637373;226;26792;-78
2021/12/05 03:43:07;;;;;;;33.87;25.33;;;4.30;99.90;;;;;;637382;226;26587;-79
2021/12/05 03:45:34;;;;;;;34.07;25.27;;;4.10;99.90;;;;;;637794;226;26754;-78
2021/12/05 03:48:02;;;;;;;35.67;25.23;;;4.20;99.90;;;;;;637635;226;26547;-78
2021/12/05 03:50:30;;;;;;;34.93;26.23;;;4.30;99.90;;;;;;637848;222;26546;-79
2021/12/05 03:52:57;;;;;;;34.97;26.47;;;4.20;99.90;;;;;;637831;226;26550;-79
2021/12/05 03:55:24;;;;;;;37.00;26.83;;;4.40;99.90;;;;;;637825;226;26538;-78
2021/12/05 03:57:52;;;;;;;39.70;27.90;;;4.40;99.90;;;;;;637818;226;26538;-79
2021/12/05 04:00:20;;;;;;;34.60;25.80;;;4.40;99.90;;;;;;637831;226;26535;-79
2021/12/05 04:02:48;;;;;;;36.40;25.93;;;4.40;99.90;;;;;;637727;225;26535;-78
2021/12/05 04:05:15;;;;;;;37.03;26.20;;;4.30;99.90;;;;;;637368;226;26563;-79
2021/12/05 04:07:42;;;;;;;34.77;25.33;;;4.40;99.90;;;;;;637310;226;26795;-78
2021/12/05 04:10:09;;;;;;;38.17;26.53;;;4.40;99.90;;;;;;637333;226;26589;-79
2021/12/05 04:12:36;;;;;;;37.37;26.33;;;4.50;99.90;;;;;;637624;223;26546;-79
2021/12/05 04:15:04;;;;;;;35.90;26.00;;;4.50;99.90;;;;;;639054;225;26559;-79
2021/12/05 04:17:31;;;;;;;36.70;25.87;;;4.60;99.90;;;;;;638504;225;26781;-78
2021/12/05 04:19:58;;;;;;;35.00;26.37;;;4.60;99.90;;;;;;638168;225;26587;-79
2021/12/05 04:22:26;;;;;;;37.13;26.03;;;4.60;99.90;;;;;;638136;225;26796;-79
2021/12/05 04:24:53;;;;;;;36.80;26.17;;;4.60;99.90;;;;;;637953;225;26714;-78
2021/12/05 04:27:20;;;;;;;38.03;26.90;;;4.70;99.90;;;;;;637952;225;26742;-79
2021/12/05 04:29:47;;;;;;;34.77;25.30;;;4.80;99.90;;;;;;637987;225;26535;-78
2021/12/05 04:32:14;;;;;;;33.30;25.37;;;4.90;99.90;;;;;;637713;225;26812;-79
2021/12/05 04:34:42;;;;;;;38.03;25.80;;;4.90;99.90;;;;;;637737;225;26562;-79
2021/12/05 04:37:09;;;;;;;36.53;27.20;;;5.00;99.90;;;;;;637774;225;26754;-79
2021/12/05 04:39:38;;;;;;;37.23;26.47;;;5.10;99.90;;;;;;637755;225;26603;-79
2021/12/05 04:42:03;;;;;;;37.37;26.57;;;5.20;99.90;;;;;;637663;225;26831;-79
2021/12/05 04:44:32;;;;;;;38.07;25.90;;;5.10;99.90;;;;;;637792;225;26554;-78
2021/12/05 04:47:00;;;;;;;34.93;26.30;;;5.20;99.90;;;;;;637736;225;26867;-78
2021/12/05 04:49:25;;;;;;;34.67;25.73;;;5.10;99.90;;;;;;637518;225;26551;-79
2021/12/05 04:51:52;;;;;;;36.43;26.37;;;5.10;99.90;;;;;;637427;226;26875;-79
2021/12/05 04:54:19;;;;;;;36.73;27.00;;;5.20;99.90;;;;;;637418;226;26540;-79
2021/12/05 04:56:48;;;;;;;33.77;24.83;;;5.30;99.90;;;;;;637352;226;26796;-79
2021/12/05 04:59:14;;;;;;;34.13;24.63;;;5.20;99.90;;;;;;637259;226;26541;-78
2021/12/05 05:01:42;;;;;;;35.37;26.43;;;5.20;99.90;;;;;;637401;226;26784;-78
2021/12/05 05:04:20;;;;;;;38.47;26.90;;;5.00;99.90;;;;;;637143;226;26599;-79
2021/12/05 05:06:36;;;;;;;35.13;24.80;;;5.00;99.90;;;;;;636444;226;26553;-79
2021/12/05 05:09:03;;;;;;;36.30;26.33;;;4.90;99.90;;;;;;637358;226;26842;-78
2021/12/05 05:11:31;;;;;;;35.67;25.77;;;4.80;99.90;;;;;;637387;226;26562;-79
2021/12/05 05:13:58;;;;;;;34.57;25.13;;;4.90;99.90;;;;;;637396;226;26788;-79
2021/12/05 05:16:26;;;;;;;35.00;25.70;;;5.00;99.90;;;;;;637388;221;26601;-79
2021/12/05 05:18:57;;;;;;;33.87;24.60;;;5.00;99.90;;;;;;637292;226;26868;-79
2021/12/05 05:26:50;;;;;;;40.10;27.23;;;5.10;99.90;;;;;;639213;223;26572;-79
2021/12/05 05:42:34;;;;;;;35.43;25.30;;;5.20;99.90;;;;;;638066;225;26533;-78
2021/12/05 05:44:45;;;;;;;38.27;27.47;;;5.30;99.90;;;;;;637223;225;26584;-79
2021/12/05 05:47:12;;;;;;;38.70;26.60;;;5.30;99.90;;;;;;637024;225;26594;-79
2021/12/05 05:52:08;;;;;;;39.83;27.73;;;5.40;99.90;;;;;;637734;225;26557;-79
2021/12/05 05:54:35;;;;;;;37.47;27.63;;;5.40;99.90;;;;;;637673;225;26786;-79
2021/12/05 05:57:14;;;;;;;35.90;25.77;;;5.40;99.90;;;;;;637721;225;26567;-79
2021/12/05 05:59:41;;;;;;;38.87;26.37;;;5.40;99.90;;;;;;636632;225;26583;-79
2021/12/05 06:03:19;;;;;;;36.60;26.13;;;5.40;99.90;;;;;;636452;225;26639;-79
2021/12/05 06:04:25;;;;;;;38.47;25.87;;;5.40;99.90;;;;;;635500;226;26550;-78
2021/12/05 06:06:52;;;;;;;38.13;25.37;;;5.50;99.90;;;;;;637399;226;26798;-79
2021/12/05 06:09:19;;;;;;;38.37;26.77;;;5.50;99.90;;;;;;637345;226;26592;-79
2021/12/05 06:11:47;;;;;;;39.67;26.70;;;5.50;99.90;;;;;;637377;226;27259;-78
2021/12/05 06:14:14;;;;;;;39.60;27.60;;;5.50;99.90;;;;;;637377;225;26570;-79
2021/12/05 06:16:41;;;;;;;37.87;25.97;;;5.50;99.90;;;;;;637350;226;26807;-79
2021/12/05 06:19:09;;;;;;;39.37;27.87;;;5.50;99.90;;;;;;637370;226;26603;-78
2021/12/05 06:21:35;;;;;;;41.57;27.33;;;5.50;99.90;;;;;;637311;226;26782;-79
2021/12/05 06:24:03;;;;;;;37.83;26.60;;;5.50;99.90;;;;;;637493;226;26597;-79
2021/12/05 06:26:30;;;;;;;38.13;26.13;;;5.50;99.90;;;;;;637452;226;27252;-79
2021/12/05 06:29:35;;;;;;;38.40;25.90;;;5.50;99.90;;;;;;637374;226;26589;-77
2021/12/05 06:31:54;;;;;;;41.10;28.30;;;5.50;99.90;;;;;;634371;226;26646;-78
2021/12/05 06:36:57;;;;;;;40.90;27.67;;;5.40;99.90;;;;;;638486;223;26783;-78
2021/12/05 06:39:24;;;;;;;36.47;27.33;;;5.30;99.90;;;;;;637958;225;26787;-78
2021/12/05 06:41:53;;;;;;;42.00;28.10;;;5.30;99.90;;;;;;638032;225;26762;-78
2021/12/05 06:46:46;;;;;;;40.77;28.10;;;5.40;99.90;;;;;;638048;225;26779;-77
2021/12/05 06:49:13;;;;;;;43.73;28.37;;;5.40;99.90;;;;;;637985;225;26531;-78
2021/12/05 06:51:40;;;;;;;42.40;27.93;;;5.30;99.90;;;;;;638067;225;26770;-78
2021/12/05 06:54:08;;;;;;;39.93;28.17;;;5.10;99.90;;;;;;637929;225;26501;-78
2021/12/05 06:56:36;;;;;;;37.37;26.63;;;5.00;99.90;;;;;;637651;225;26621;-79
2021/12/05 06:59:04;;;;;;;36.30;26.20;;;5.10;99.90;;;;;;637688;225;26589;-78
2021/12/05 07:01:32;;;;;;;36.93;26.37;;;5.20;99.90;;;;;;637690;221;26588;-79
2021/12/05 07:04:09;;;;;;;35.10;25.60;;;5.30;99.90;;;;;;637632;225;26532;-78
2021/12/05 07:06:31;;;;;;;38.53;25.97;;;5.20;99.90;;;;;;636972;225;26563;-78
2021/12/05 07:09:05;;;;;;;36.27;26.70;;;5.30;99.90;;;;;;637560;225;26629;-79
2021/12/05 07:11:31;;;;;;;39.50;27.07;;;5.30;99.90;;;;;;637006;225;26564;-78
2021/12/05 07:16:50;;;;;;;37.70;25.00;;;5.20;99.90;;;;;;616506;226;26897;-78
2021/12/05 07:19:24;;;;;;;32.53;25.20;;;5.20;99.90;;;;;;636601;226;27245;-78
2021/12/05 07:21:48;;;;;;;34.53;24.87;;;5.10;99.90;;;;;;636372;226;26600;-79
2021/12/05 07:24:29;;;;;;;32.53;25.50;;;5.20;99.90;;;;;;636785;225;26557;-78
2021/12/05 07:27:02;;;;;;;32.43;24.10;;;5.20;99.90;;;;;;636139;225;26552;-79
2021/12/05 07:42:04;;;;;;;37.77;26.20;;;5.30;99.90;;;;;;637420;226;26566;-79
2021/12/05 07:44:21;;;;;;;37.50;25.33;;;5.30;99.90;;;;;;636582;226;26793;-79
2021/12/05 07:46:48;;;;;;;36.20;25.87;;;5.40;99.90;;;;;;637484;226;26558;-78
2021/12/05 07:49:17;;;;;;;37.23;26.67;;;5.40;99.90;;;;;;639079;223;26605;-78
2021/12/05 07:51:47;;;;;;;38.63;25.43;;;5.50;99.90;;;;;;638642;225;26510;-78
2021/12/05 07:54:26;;;;;;;36.87;27.53;;;5.50;99.90;;;;;;638190;225;26550;-79
2021/12/05 07:56:46;;;;;;;38.17;28.00;;;5.50;99.90;;;;;;641877;221;26605;-79
2021/12/05 07:59:20;;;;;;;39.70;27.77;;;5.50;99.90;;;;;;634060;222;26556;-79
2021/12/05 08:14:43;;;;;;;39.13;27.17;;;5.50;99.90;;;;;;640109;221;26555;-80
2021/12/05 08:17:13;;;;;;;39.77;27.50;;;5.50;99.90;;;;;;646861;222;26511;-76
2021/12/05 08:19:33;;;;;;;41.50;27.30;;;5.50;99.90;;;;;;643707;221;26534;-76
2021/12/05 08:22:01;;;;;;;35.53;25.23;;;5.50;99.90;;;;;;642249;222;26736;-76
2021/12/05 08:24:32;;;;;;;40.90;29.03;;;5.50;99.90;;;;;;645392;222;26569;-76
2021/12/05 08:26:56;;;;;;;41.53;27.93;;;5.60;99.90;;;;;;648240;222;26566;-78
2021/12/05 08:29:34;;;;;;;41.53;28.10;;;5.90;99.90;;;;;;642502;221;26583;-76
2021/12/05 08:32:08;;;;;;;37.43;26.43;;;6.00;99.90;;;;;;649212;221;26590;-77
2021/12/05 08:34:43;;;;;;;37.30;26.00;;;6.00;99.90;;;;;;647345;221;26570;-78
2021/12/05 08:40:00;;;;;;;39.23;27.23;;;6.10;99.90;;;;;;648379;222;26586;-76
2021/12/05 08:42:22;;;;;;;42.30;28.10;;;6.00;99.90;;;;;;649119;221;26673;-75
2021/12/05 08:44:55;;;;;;;43.40;29.13;;;6.00;99.90;;;;;;649138;221;26585;-76
2021/12/05 09:20:46;;;;;;;47.73;29.87;;;6.50;99.90;;;;;;637684;225;26805;-77
2021/12/05 09:25:55;;;;;;;42.03;28.53;;;6.50;99.90;;;;;;616069;222;26781;-78
2021/12/05 09:28:23;;;;;;;45.13;28.93;;;6.50;99.90;;;;;;644221;221;26517;-78
2021/12/05 09:30:46;;;;;;;46.57;29.77;;;6.50;99.90;;;;;;635646;220;26901;-78
2021/12/05 10:09:11;;;;;;;41.10;27.63;;;7.00;99.90;;;;;;637332;226;26585;-78
2021/12/05 10:11:34;;;;;;;44.27;28.33;;;7.00;99.90;;;;;;637170;223;26547;-77
2021/12/05 10:14:11;;;;;;;44.20;27.80;;;7.00;99.90;;;;;;638031;225;26792;-77
2021/12/05 10:16:37;;;;;;;39.77;28.10;;;7.00;99.90;;;;;;636973;225;26838;-78
2021/12/05 10:35:23;;;;;;;46.40;30.37;;;7.00;99.90;;;;;;637814;225;26565;-76
2021/12/05 10:37:32;;;;;;;50.17;31.73;;;7.10;99.90;;;;;;645497;222;26515;-75
2021/12/05 10:40:05;;;;;;;51.13;31.63;;;7.20;99.90;;;;;;648493;221;26547;-76
2021/12/05 10:42:44;;;;;;;47.50;30.30;;;7.30;99.90;;;;;;649985;220;26478;-79
2021/12/05 10:45:09;;;;;;;47.43;30.07;;;7.50;99.90;;;;;;651298;221;26507;-76
2021/12/05 10:47:38;;;;;;;50.00;31.57;;;7.70;99.90;;;;;;650320;221;26543;-78
2021/12/05 10:50:17;;;;;;;41.63;27.73;;;7.70;99.90;;;;;;647257;222;26560;-77
2021/12/05 10:52:44;;;;;;;44.70;28.57;;;7.60;99.90;;;;;;647258;222;26532;-77
2021/12/05 10:55:12;;;;;;;41.30;27.37;;;7.70;99.90;;;;;;642646;222;26508;-78
2021/12/05 10:57:41;;;;;;;40.90;28.30;;;7.70;99.90;;;;;;637419;226;26566;-78
2021/12/05 11:00:10;;;;;;;46.03;30.00;;;7.90;99.90;;;;;;637124;226;26811;-78
2021/12/05 11:02:38;;;;;;;45.20;30.10;;;8.00;99.90;;;;;;637442;225;26606;-77
2021/12/05 11:05:05;;;;;;;41.90;29.67;;;8.10;99.90;;;;;;644313;222;26749;-79
2021/12/05 11:07:32;;;;;;;45.40;30.40;;;8.10;99.90;;;;;;647360;222;26525;-79
2021/12/05 11:10:02;;;;;;;49.37;31.67;;;8.10;99.90;;;;;;644716;222;26878;-79
2021/12/05 11:12:27;;;;;;;49.13;30.83;;;8.10;99.90;;;;;;637242;226;26590;-78
2021/12/05 11:14:55;;;;;;;48.90;30.83;;;8.10;99.90;;;;;;639736;222;26572;-77
2021/12/05 11:17:26;;;;;;;48.20;30.57;;;8.00;99.90;;;;;;645199;222;26844;-78
2021/12/05 11:19:53;;;;;;;44.60;29.80;;;8.00;99.90;;;;;;647017;222;26815;-78
2021/12/05 11:22:21;;;;;;;50.27;31.30;;;8.00;99.90;;;;;;647367;220;26522;-79
2021/12/05 11:24:47;;;;;;;47.43;31.43;;;8.00;99.90;;;;;;648824;221;26774;-78
2021/12/05 11:27:15;;;;;;;51.30;32.73;;;7.80;99.90;;;;;;648255;222;26590;-79
2021/12/05 11:29:45;;;;;;;53.77;32.37;;;7.50;99.90;;;;;;647884;222;26530;-79
2021/12/05 11:32:15;;;;;;;52.33;33.70;;;7.50;99.90;;;;;;647928;222;26566;-80
2021/12/05 11:34:42;;;;;;;51.77;33.90;;;7.30;99.90;;;;;;647829;222;26570;-80
2021/12/05 11:37:09;;;;;;;50.23;32.03;;;7.20;99.90;;;;;;647940;221;27234;-80
2021/12/05 11:39:36;;;;;;;50.83;32.63;;;6.80;99.90;;;;;;647923;222;26549;-80
2021/12/05 11:42:03;;;;;;;49.23;32.73;;;6.60;99.90;;;;;;647573;220;26785;-79
2021/12/05 11:44:31;;;;;;;49.87;32.07;;;6.70;99.90;;;;;;647017;222;26555;-79
2021/12/05 11:46:58;;;;;;;49.77;30.30;;;6.90;99.90;;;;;;648003;222;26780;-79
2021/12/05 11:49:26;;;;;;;50.70;30.97;;;6.90;99.90;;;;;;647918;220;26576;-80
2021/12/05 11:51:56;;;;;;;52.83;31.90;;;6.90;99.90;;;;;;648021;222;26533;-80
2021/12/05 11:54:24;;;;;;;45.83;30.47;;;6.90;99.90;;;;;;647906;220;26533;-79
2021/12/05 11:56:53;;;;;;;51.97;31.93;;;6.90;99.90;;;;;;647954;222;26858;-79
2021/12/05 11:59:37;;;;;;;52.87;33.57;;;6.90;99.90;;;;;;647158;222;26516;-80
2021/12/05 12:02:20;;;;;;;50.93;32.27;;;6.50;99.90;;;;;;647359;222;26500;-79
2021/12/05 12:04:54;;;;;;;52.07;33.10;;;6.50;99.90;;;;;;646880;222;26765;-80
2021/12/05 12:07:53;;;;;;;51.67;31.67;;;6.30;99.90;;;;;;646952;222;26523;-80
2021/12/05 12:10:25;;;;;;;54.63;33.73;;;6.10;99.90;;;;;;644885;221;26774;-80
2021/12/05 12:13:06;;;;;;;51.97;32.17;;;6.30;99.90;;;;;;646280;222;26476;-81
2021/12/05 12:15:33;;;;;;;50.23;30.73;;;6.30;99.90;;;;;;647197;222;26559;-80
2021/12/05 12:18:07;;;;;;;54.47;30.83;;;6.40;99.90;;;;;;647278;222;26745;-80
2021/12/05 12:20:29;;;;;;;46.10;30.03;;;6.20;99.90;;;;;;646758;222;26515;-79
2021/12/05 12:22:55;;;;;;;45.47;29.10;;;6.20;99.90;;;;;;647276;222;26842;-80
2021/12/05 12:25:22;;;;;;;47.03;29.43;;;5.90;99.90;;;;;;647329;222;26528;-80
2021/12/05 12:27:49;;;;;;;43.43;27.80;;;5.90;99.90;;;;;;647266;222;26734;-79
2021/12/05 12:30:19;;;;;;;47.20;29.00;;;6.00;99.90;;;;;;647346;222;26519;-80
2021/12/05 12:32:43;;;;;;;43.63;28.57;;;6.20;99.90;;;;;;647098;220;26772;-81
2021/12/05 12:35:12;;;;;;;42.73;29.23;;;6.30;99.90;;;;;;648651;220;26527;-80
2021/12/05 12:37:50;;;;;;;42.90;28.53;;;6.50;99.90;;;;;;648492;222;26571;-80
2021/12/05 12:40:18;;;;;;;43.37;28.60;;;6.60;99.90;;;;;;648166;222;27305;-80
2021/12/05 12:42:46;;;;;;;42.73;29.23;;;6.50;99.90;;;;;;646964;222;26526;-80
2021/12/05 12:45:16;;;;;;;44.57;29.73;;;6.20;99.90;;;;;;647821;222;26586;-80
2021/12/05 12:47:44;;;;;;;45.03;30.50;;;6.20;99.90;;;;;;647783;222;26566;-79
2021/12/05 12:50:19;;;;;;;46.40;30.30;;;6.20;99.90;;;;;;647846;222;26581;-80
2021/12/05 12:53:11;;;;;;;45.97;29.70;;;6.30;99.90;;;;;;647644;222;26794;-81
2021/12/05 12:55:39;;;;;;;46.33;30.23;;;6.10;99.90;;;;;;647345;222;26560;-80
2021/12/05 12:58:10;;;;;;;44.67;30.77;;;6.10;99.90;;;;;;647488;222;26569;-81
2021/12/05 13:00:36;;;;;;;43.77;29.50;;;6.30;99.90;;;;;;647506;220;26790;-80
2021/12/05 13:03:24;;;;;;;43.07;29.13;;;6.40;99.90;;;;;;647447;222;26549;-81
2021/12/05 13:10:47;;;;;;;44.13;28.83;;;6.60;99.90;;;;;;647332;222;26507;-80
2021/12/05 13:13:27;;;;;;;45.83;30.03;;;6.60;99.90;;;;;;647189;222;26532;-80
2021/12/05 13:15:53;;;;;;;46.90;30.83;;;6.80;99.90;;;;;;647155;220;26520;-81
2021/12/05 13:18:25;;;;;;;47.70;30.17;;;6.80;99.90;;;;;;647159;222;26708;-80
2021/12/05 13:20:52;;;;;;;48.90;32.57;;;6.70;99.90;;;;;;647000;222;26553;-80
2021/12/05 13:23:23;;;;;;;48.33;30.40;;;6.50;99.90;;;;;;646958;218;27401;-80
2021/12/05 13:26:13;;;;;;;49.17;31.73;;;6.30;99.90;;;;;;647250;222;26506;-80
2021/12/05 13:28:55;;;;;;;46.40;30.00;;;6.30;99.90;;;;;;646957;222;26573;-80
2021/12/05 13:31:31;;;;;;;49.73;32.40;;;6.20;99.90;;;;;;643729;221;26530;-80
2021/12/05 13:34:09;;;;;;;49.10;31.27;;;6.20;99.90;;;;;;647072;222;26758;-79
2021/12/05 13:36:37;;;;;;;49.13;31.93;;;6.20;99.90;;;;;;647362;218;26480;-80
2021/12/05 13:39:11;;;;;;;51.27;32.57;;;6.00;99.90;;;;;;647323;222;26532;-79
2021/12/05 13:41:38;;;;;;;52.43;32.47;;;6.00;99.90;;;;;;646129;222;26511;-79
2021/12/05 13:44:05;;;;;;;50.07;32.13;;;5.60;99.90;;;;;;647346;222;26516;-79
2021/12/05 13:46:35;;;;;;;46.83;29.83;;;5.60;99.90;;;;;;648647;220;26548;-79
2021/12/05 13:49:02;;;;;;;55.23;34.70;;;5.60;99.90;;;;;;648762;222;26578;-79
2021/12/05 13:51:31;;;;;;;53.30;34.27;;;5.70;99.90;;;;;;646517;222;27095;-79
2021/12/05 13:54:01;;;;;;;55.33;34.03;;;5.70;99.90;;;;;;648338;220;26529;-80
2021/12/05 13:56:25;;;;;;;57.53;35.70;;;5.80;99.90;;;;;;647646;219;26843;-79
2021/12/05 13:58:53;;;;;;;52.57;32.57;;;5.90;99.90;;;;;;647891;222;26533;-80
2021/12/05 14:01:26;;;;;;;57.43;35.93;;;5.90;99.90;;;;;;647758;220;26881;-79
2021/12/05 14:03:58;;;;;;;58.70;35.83;;;5.80;99.90;;;;;;647812;222;26567;-79
2021/12/05 14:06:29;;;;;;;53.83;34.53;;;5.80;99.90;;;;;;647690;222;27224;-80
2021/12/05 14:08:57;;;;;;;56.93;35.70;;;5.60;99.90;;;;;;647523;222;26584;-79
2021/12/05 14:11:24;;;;;;;57.27;35.53;;;5.50;99.90;;;;;;647453;222;26587;-79
2021/12/05 14:13:52;;;;;;;58.23;34.80;;;5.60;99.90;;;;;;647598;222;26600;-79
2021/12/05 14:16:20;;;;;;;52.13;33.30;;;5.60;99.90;;;;;;647601;222;26570;-81
2021/12/05 14:18:48;;;;;;;52.40;33.80;;;5.60;99.90;;;;;;647544;218;26583;-81
2021/12/05 14:21:15;;;;;;;52.30;33.77;;;5.60;99.90;;;;;;647099;222;26557;-81
2021/12/05 14:23:48;;;;;;;53.07;33.50;;;5.70;99.90;;;;;;647159;222;26539;-81
2021/12/05 14:26:17;;;;;;;52.53;33.07;;;5.80;99.90;;;;;;647077;220;26526;-81
2021/12/05 14:28:44;;;;;;;51.43;32.53;;;5.80;99.90;;;;;;647629;218;26519;-82
2021/12/05 14:31:12;;;;;;;51.63;33.07;;;5.70;99.90;;;;;;646983;222;26491;-81
2021/12/05 14:33:45;;;;;;;50.63;30.20;;;5.70;99.90;;;;;;646893;220;26476;-81
2021/12/05 14:36:32;;;;;;;46.63;30.63;;;5.70;99.90;;;;;;647720;221;26488;-82
2021/12/05 14:39:21;;;;;;;44.43;30.00;;;5.80;99.90;;;;;;647444;222;26520;-81
2021/12/05 14:41:48;;;;;;;45.73;30.20;;;5.70;99.90;;;;;;646115;222;26519;-82
2021/12/05 14:44:17;;;;;;;43.17;28.23;;;5.50;99.90;;;;;;647084;222;26535;-81
2021/12/05 14:46:43;;;;;;;46.07;30.07;;;5.50;99.90;;;;;;647161;222;27180;-81
2021/12/05 14:49:11;;;;;;;44.77;28.90;;;5.50;99.90;;;;;;647132;221;26547;-81
2021/12/05 14:51:38;;;;;;;44.90;29.43;;;5.50;99.90;;;;;;647209;222;26744;-81
2021/12/05 14:54:05;;;;;;;44.90;29.10;;;5.50;99.90;;;;;;647167;222;26516;-81
2021/12/05 14:56:32;;;;;;;45.50;29.67;;;5.60;99.90;;;;;;647134;220;26867;-81
2021/12/05 14:59:08;;;;;;;44.70;29.53;;;5.60;99.90;;;;;;648984;220;26778;-80
2021/12/05 15:01:36;;;;;;;45.40;30.57;;;5.70;99.90;;;;;;648258;222;26584;-81
2021/12/05 15:04:05;;;;;;;46.90;29.57;;;5.80;99.90;;;;;;648278;222;26751;-81
2021/12/05 15:06:34;;;;;;;47.40;30.40;;;5.70;99.90;;;;;;648010;220;26508;-82
2021/12/05 15:09:00;;;;;;;47.37;30.43;;;5.80;99.90;;;;;;647655;222;26768;-81
2021/12/05 15:11:28;;;;;;;46.57;29.67;;;5.60;99.90;;;;;;647825;222;26525;-81
2021/12/05 15:14:05;;;;;;;49.03;29.87;;;5.60;99.90;;;;;;647877;222;26544;-81
2021/12/05 15:16:33;;;;;;;45.27;28.97;;;5.60;99.90;;;;;;647558;222;26788;-81
2021/12/05 15:19:00;;;;;;;45.37;30.07;;;5.50;99.90;;;;;;647408;218;26842;-81
2021/12/05 15:21:32;;;;;;;47.60;30.90;;;5.30;99.90;;;;;;647425;222;26807;-81
2021/12/05 15:23:56;;;;;;;46.90;30.87;;;5.20;99.90;;;;;;646584;222;26588;-79
2021/12/05 15:26:24;;;;;;;51.90;31.00;;;5.20;99.90;;;;;;647715;222;26813;-81
2021/12/05 15:28:51;;;;;;;49.73;30.63;;;5.20;99.90;;;;;;647081;222;26603;-81
2021/12/05 15:31:18;;;;;;;56.07;32.07;;;5.30;99.90;;;;;;645323;221;26801;-81
2021/12/05 15:33:46;;;;;;;52.50;31.87;;;5.40;99.90;;;;;;644368;222;26545;-82
2021/12/05 15:36:13;;;;;;;51.30;33.23;;;5.50;99.90;;;;;;637357;221;26855;-81
2021/12/05 15:38:40;;;;;;;51.10;29.93;;;5.50;99.90;;;;;;637270;226;26532;-82
2021/12/05 15:41:09;;;;;;;49.97;30.67;;;5.50;99.90;;;;;;644831;222;26535;-80
2021/12/05 15:43:35;;;;;;;52.87;31.07;;;5.40;99.90;;;;;;647052;222;26767;-82
2021/12/05 15:46:04;;;;;;;50.23;31.60;;;5.40;99.90;;;;;;644603;219;26518;-81
2021/12/05 15:48:29;;;;;;;50.97;32.27;;;5.10;99.90;;;;;;639843;222;26797;-81
2021/12/05 15:50:56;;;;;;;53.00;30.97;;;5.10;99.90;;;;;;647157;222;26523;-81
2021/12/05 15:53:23;;;;;;;55.17;32.70;;;5.00;99.90;;;;;;647206;222;26764;-82
2021/12/05 15:55:57;;;;;;;53.30;31.83;;;5.10;99.90;;;;;;647219;218;26511;-84
2021/12/05 15:58:24;;;;;;;62.03;34.03;;;5.00;99.90;;;;;;646766;222;26553;-83
2021/12/05 16:00:51;;;;;;;53.50;32.50;;;5.00;99.90;;;;;;646352;222;26747;-83
2021/12/05 16:03:20;;;;;;;59.63;32.87;;;5.00;99.90;;;;;;647020;222;26528;-81
2021/12/05 16:05:47;;;;;;;56.03;32.43;;;5.00;99.90;;;;;;647188;222;26516;-82
2021/12/05 16:08:14;;;;;;;61.87;33.40;;;4.90;99.90;;;;;;646697;222;26764;-82
2021/12/05 16:10:44;;;;;;;54.00;32.80;;;4.80;99.90;;;;;;649158;221;26564;-82
2021/12/05 16:13:12;;;;;;;59.73;33.43;;;4.90;99.90;;;;;;648399;222;26606;-82
2021/12/05 16:15:40;;;;;;;62.27;34.60;;;5.10;99.90;;;;;;648112;222;26526;-83
2021/12/05 16:18:08;;;;;;;58.07;31.93;;;5.10;99.90;;;;;;648046;222;26753;-82